createdAt,value
2017-05-08T00:00:18.492Z,7.02
2017-05-08T00:02:45.272Z,7.46
2017-05-08T00:05:12.843Z,6.34
2017-05-08T00:07:39.619Z,6.32
2017-05-08T00:10:06.435Z,6.60
2017-05-08T00:12:33.266Z,7.20
2017-05-08T00:15:00.047Z,7.76
2017-05-08T00:17:26.884Z,6.62
2017-05-08T00:19:53.694Z,6.64
2017-05-08T00:22:20.523Z,5.88
2017-05-08T00:24:47.383Z,6.44
2017-05-08T00:27:14.200Z,6.46
2017-05-08T00:29:41.031Z,7.50
2017-05-08T00:32:07.826Z,6.88
2017-05-08T00:34:35.348Z,5.92
2017-05-08T00:37:02.272Z,5.60
2017-05-08T00:39:29.060Z,6.02
2017-05-08T00:41:55.847Z,5.20
2017-05-08T00:44:22.683Z,6.18
2017-05-08T00:46:50.212Z,5.80
2017-05-08T00:49:17.041Z,6.26
2017-05-08T00:51:44.564Z,5.64
2017-05-08T00:54:11.405Z,5.28
2017-05-08T00:56:38.220Z,5.38
2017-05-08T00:59:05.003Z,5.20
2017-05-08T01:01:31.820Z,5.70
2017-05-08T01:03:58.624Z,5.08
2017-05-08T01:06:26.192Z,4.72
2017-05-08T01:08:53.028Z,6.06
2017-05-08T01:11:19.871Z,5.62
2017-05-08T01:13:46.712Z,4.94
2017-05-08T01:16:13.496Z,5.24
2017-05-08T01:18:41.044Z,5.02
2017-05-08T01:21:08.603Z,5.48
2017-05-08T01:23:35.389Z,5.04
2017-05-08T01:26:02.227Z,5.90
2017-05-08T01:28:29.791Z,5.32
2017-05-08T01:30:57.324Z,4.94
2017-05-08T01:33:24.920Z,5.32
2017-05-08T01:35:51.705Z,4.78
2017-05-08T01:38:19.275Z,5.18
2017-05-08T01:40:46.072Z,5.10
2017-05-08T01:43:13.596Z,5.12
2017-05-08T01:45:40.435Z,4.86
2017-05-08T01:48:07.216Z,3.96
2017-05-08T01:50:34.039Z,4.40
2017-05-08T01:53:00.822Z,4.74
2017-05-08T01:55:28.395Z,4.38
2017-05-08T01:57:55.209Z,4.16
2017-05-08T02:00:22.091Z,3.68
2017-05-08T02:02:48.917Z,3.94
2017-05-08T02:05:15.695Z,4.66
2017-05-08T02:07:43.261Z,5.00
2017-05-08T02:10:10.125Z,5.18
2017-05-08T02:12:36.969Z,4.72
2017-05-08T02:15:03.760Z,4.42
2017-05-08T02:17:30.628Z,4.44
2017-05-08T02:19:57.428Z,5.24
2017-05-08T02:22:24.239Z,5.56
2017-05-08T02:24:51.183Z,4.40
2017-05-08T02:27:18.016Z,5.02
2017-05-08T02:29:44.807Z,4.42
2017-05-08T02:32:11.650Z,5.18
2017-05-08T02:34:38.443Z,5.66
2017-05-08T02:37:05.985Z,5.08
2017-05-08T02:39:33.617Z,4.82
2017-05-08T02:42:00.405Z,5.82
2017-05-08T02:44:27.243Z,4.98
2017-05-08T02:46:54.141Z,5.52
2017-05-08T02:49:20.951Z,5.94
2017-05-08T02:51:48.477Z,5.60
2017-05-08T02:54:15.307Z,5.64
2017-05-08T02:56:42.088Z,5.72
2017-05-08T02:59:08.868Z,4.88
2017-05-08T03:01:36.494Z,4.90
2017-05-08T03:04:03.283Z,5.62
2017-05-08T03:06:30.072Z,5.52
2017-05-08T03:08:57.661Z,4.34
2017-05-08T03:11:24.482Z,4.38
2017-05-08T03:13:51.264Z,4.82
2017-05-08T03:16:18.092Z,4.48
2017-05-08T03:18:44.872Z,4.68
2017-05-08T03:21:11.851Z,4.60
2017-05-08T03:23:38.644Z,4.32
2017-05-08T03:26:05.451Z,5.28
2017-05-08T03:28:32.340Z,4.82
2017-05-08T03:30:59.980Z,5.06
2017-05-08T03:33:26.790Z,5.80
2017-05-08T03:35:53.604Z,5.08
2017-05-08T03:38:20.423Z,5.02
2017-05-08T03:40:47.244Z,5.66
2017-05-08T03:43:14.035Z,7.14
2017-05-08T03:45:41.603Z,4.92
2017-05-08T03:48:08.406Z,5.64
2017-05-08T03:50:35.968Z,5.08
2017-05-08T03:53:02.828Z,4.20
2017-05-08T03:55:29.627Z,4.76
2017-05-08T03:57:56.477Z,5.46
2017-05-08T04:00:23.299Z,5.36
2017-05-08T04:02:50.116Z,5.24
2017-05-08T04:05:16.899Z,4.96
2017-05-08T04:07:43.723Z,4.50
2017-05-08T04:10:10.504Z,4.74
2017-05-08T04:12:37.292Z,5.34
2017-05-08T04:15:04.210Z,4.90
2017-05-08T04:17:30.991Z,4.78
2017-05-08T04:19:57.804Z,4.30
2017-05-08T04:22:24.709Z,4.90
2017-05-08T04:24:52.321Z,5.20
2017-05-08T04:27:19.148Z,4.98
2017-05-08T04:29:45.992Z,5.90
2017-05-08T04:32:12.891Z,6.26
2017-05-08T04:34:39.678Z,5.48
2017-05-08T04:37:07.255Z,5.98
2017-05-08T04:39:34.079Z,5.68
2017-05-08T04:42:00.924Z,7.36
2017-05-08T04:44:27.729Z,5.50
2017-05-08T04:46:54.988Z,5.90
2017-05-08T04:49:21.807Z,6.80
2017-05-08T04:51:48.635Z,5.70
2017-05-08T04:54:15.420Z,6.22
2017-05-08T04:56:43.012Z,6.96
2017-05-08T04:59:09.895Z,7.52
2017-05-08T05:01:37.475Z,6.54
2017-05-08T05:04:04.275Z,6.60
2017-05-08T05:06:31.799Z,6.62
2017-05-08T05:08:58.638Z,7.46
2017-05-08T05:11:26.175Z,7.50
2017-05-08T05:13:52.976Z,8.10
2017-05-08T05:16:19.792Z,7.76
2017-05-08T05:18:46.629Z,8.76
2017-05-08T05:21:13.422Z,9.30
2017-05-08T05:23:40.214Z,9.02
2017-05-08T05:26:07.049Z,13.50
2017-05-08T05:28:34.624Z,11.04
2017-05-08T05:31:01.467Z,8.68
2017-05-08T05:33:28.274Z,8.16
2017-05-08T05:35:55.121Z,9.34
2017-05-08T05:38:22.020Z,8.68
2017-05-08T05:40:49.541Z,9.82
2017-05-08T05:43:16.320Z,8.16
2017-05-08T05:45:43.135Z,9.88
2017-05-08T05:48:09.964Z,8.94
2017-05-08T05:50:36.748Z,9.18
2017-05-08T05:53:03.542Z,9.48
2017-05-08T05:55:37.592Z,10.22
2017-05-08T05:58:05.417Z,9.56
2017-05-08T06:00:32.203Z,9.36
2017-05-08T06:02:59.048Z,9.08
2017-05-08T06:05:25.875Z,10.42
2017-05-08T06:07:52.751Z,11.36
2017-05-08T06:10:19.573Z,10.40
2017-05-08T06:12:46.408Z,10.28
2017-05-08T06:15:13.196Z,10.00
2017-05-08T06:17:39.980Z,10.34
2017-05-08T06:20:07.568Z,10.18
2017-05-08T06:22:34.397Z,9.90
2017-05-08T06:25:01.237Z,9.30
2017-05-08T06:27:28.028Z,9.56
2017-05-08T06:29:54.867Z,10.00
2017-05-08T06:32:21.707Z,8.62
2017-05-08T06:34:48.484Z,8.12
2017-05-08T06:37:16.007Z,9.38
2017-05-08T06:39:42.843Z,9.52
2017-05-08T06:42:09.623Z,11.12
2017-05-08T06:44:36.401Z,10.26
2017-05-08T06:47:03.962Z,11.70
2017-05-08T06:49:31.491Z,11.04
2017-05-08T06:51:58.284Z,12.66
2017-05-08T06:54:25.159Z,11.24
2017-05-08T06:56:52.692Z,11.12
2017-05-08T06:59:19.472Z,10.76
2017-05-08T07:01:46.287Z,10.14
2017-05-08T07:04:13.107Z,8.60
2017-05-08T07:06:39.928Z,9.76
2017-05-08T07:09:06.764Z,9.92
2017-05-08T07:11:33.543Z,9.56
2017-05-08T07:14:00.369Z,10.66
2017-05-08T07:16:27.160Z,9.98
2017-05-08T07:18:53.944Z,9.42
2017-05-08T07:21:21.576Z,8.54
2017-05-08T07:23:48.356Z,9.16
2017-05-08T07:26:15.131Z,7.70
2017-05-08T07:28:42.063Z,8.24
2017-05-08T07:31:08.946Z,9.96
2017-05-08T07:33:35.771Z,8.90
2017-05-08T07:36:02.564Z,9.68
2017-05-08T07:38:30.171Z,9.32
2017-05-08T07:40:56.965Z,8.20
2017-05-08T07:43:23.770Z,9.12
2017-05-08T07:45:51.331Z,7.68
2017-05-08T07:48:18.109Z,6.70
2017-05-08T07:50:44.936Z,6.70
2017-05-08T07:53:11.715Z,6.34
2017-05-08T07:55:38.504Z,6.70
2017-05-08T07:58:05.341Z,5.74
2017-05-08T08:00:32.855Z,5.52
2017-05-08T08:02:59.653Z,6.24
2017-05-08T08:05:26.510Z,7.12
2017-05-08T08:07:53.308Z,7.10
2017-05-08T08:10:20.084Z,8.96
2017-05-08T08:12:46.895Z,8.64
2017-05-08T08:15:13.691Z,9.74
2017-05-08T08:17:40.523Z,9.16
2017-05-08T08:20:07.299Z,10.68
2017-05-08T08:22:34.090Z,11.16
2017-05-08T08:25:00.956Z,12.10
2017-05-08T08:27:27.767Z,12.92
2017-05-08T08:29:54.626Z,14.20
2017-05-08T08:32:22.193Z,14.26
2017-05-08T08:34:48.988Z,15.82
2017-05-08T08:37:15.847Z,15.68
2017-05-08T08:39:42.626Z,15.00
2017-05-08T08:42:09.408Z,18.76
2017-05-08T08:44:36.235Z,18.08
2017-05-08T08:47:03.022Z,27.58
2017-05-08T08:49:29.837Z,27.50
2017-05-08T08:51:56.672Z,26.90
2017-05-08T08:54:23.471Z,31.06
2017-05-08T08:56:50.268Z,30.92
2017-05-08T08:59:17.096Z,33.56
2017-05-08T09:01:43.892Z,32.72
2017-05-08T09:04:10.675Z,33.44
2017-05-08T09:06:37.659Z,34.78
2017-05-08T09:09:05.279Z,35.58
2017-05-08T09:11:32.098Z,37.06
2017-05-08T09:13:58.900Z,36.04
2017-05-08T09:16:25.734Z,35.50
2017-05-08T09:18:52.511Z,35.48
2017-05-08T09:21:19.291Z,37.16
2017-05-08T09:23:46.111Z,35.82
2017-05-08T09:26:12.896Z,37.14
2017-05-08T09:28:40.473Z,39.64
2017-05-08T09:31:07.255Z,40.42
2017-05-08T09:33:34.040Z,36.68
2017-05-08T09:36:00.868Z,37.50
2017-05-08T09:38:27.703Z,36.46
2017-05-08T09:40:54.580Z,34.14
2017-05-08T09:43:22.100Z,35.06
2017-05-08T09:45:48.915Z,32.60
2017-05-08T09:48:15.724Z,31.20
2017-05-08T09:50:42.556Z,32.20
2017-05-08T09:53:09.351Z,31.44
2017-05-08T09:55:36.884Z,35.28
2017-05-08T09:58:04.491Z,34.82
2017-05-08T10:00:31.279Z,33.38
2017-05-08T10:02:58.084Z,32.72
2017-05-08T10:05:25.679Z,34.70
2017-05-08T10:07:52.494Z,31.04
2017-05-08T10:10:19.279Z,30.84
2017-05-08T10:12:46.127Z,30.42
2017-05-08T10:15:13.651Z,31.20
2017-05-08T10:17:40.469Z,30.28
2017-05-08T10:20:07.343Z,29.20
2017-05-08T10:22:34.130Z,28.86
2017-05-08T10:25:00.932Z,26.70
2017-05-08T10:27:27.803Z,26.44
2017-05-08T10:29:55.353Z,25.88
2017-05-08T10:32:22.879Z,26.44
2017-05-08T10:34:50.052Z,27.60
2017-05-08T10:37:16.837Z,28.46
2017-05-08T10:39:43.618Z,29.66
2017-05-08T10:42:10.459Z,28.14
2017-05-08T10:44:37.276Z,28.10
2017-05-08T10:47:04.055Z,24.24
2017-05-08T10:49:30.863Z,26.56
2017-05-08T10:51:57.657Z,26.36
2017-05-08T10:54:24.507Z,26.30
2017-05-08T10:56:51.297Z,25.80
2017-05-08T10:59:18.076Z,24.94
2017-05-08T11:01:44.920Z,23.08
2017-05-08T11:04:11.716Z,23.82
2017-05-08T11:06:38.504Z,24.70
2017-05-08T11:09:05.377Z,24.66
2017-05-08T11:11:32.171Z,23.36
2017-05-08T11:13:58.961Z,22.76
2017-05-08T11:16:25.772Z,21.94
2017-05-08T11:18:52.559Z,22.26
2017-05-08T11:21:19.403Z,21.10
2017-05-08T11:23:46.184Z,20.68
2017-05-08T11:26:13.704Z,23.04
2017-05-08T11:28:40.531Z,23.24
2017-05-08T11:31:07.340Z,19.66
2017-05-08T11:33:34.139Z,22.56
2017-05-08T11:36:00.951Z,20.82
2017-05-08T11:38:27.733Z,23.52
2017-05-08T11:40:54.592Z,21.08
2017-05-08T11:43:22.119Z,20.88
2017-05-08T11:45:48.940Z,20.74
2017-05-08T11:48:15.740Z,19.84
2017-05-08T11:50:42.555Z,19.76
2017-05-08T11:53:09.365Z,19.78
2017-05-08T11:55:36.223Z,21.20
2017-05-08T11:58:03.005Z,19.42
2017-05-08T12:00:30.532Z,21.36
2017-05-08T12:02:57.364Z,24.62
2017-05-08T12:05:24.920Z,22.42
2017-05-08T12:07:52.495Z,21.24
2017-05-08T12:10:19.283Z,23.46
2017-05-08T12:12:46.068Z,22.10
2017-05-08T12:15:12.886Z,24.76
2017-05-08T12:17:39.671Z,23.74
2017-05-08T12:20:07.188Z,26.90
2017-05-08T12:22:34.009Z,26.24
2017-05-08T12:25:00.869Z,23.76
2017-05-08T12:27:28.390Z,24.62
2017-05-08T12:29:55.183Z,24.36
2017-05-08T12:32:22.015Z,23.32
2017-05-08T12:34:48.808Z,26.02
2017-05-08T12:37:16.329Z,25.18
2017-05-08T12:39:43.200Z,22.86
2017-05-08T12:42:10.043Z,22.88
2017-05-08T12:44:36.844Z,23.06
2017-05-08T12:47:04.418Z,19.54
2017-05-08T12:49:31.188Z,19.78
2017-05-08T12:51:57.980Z,18.82
2017-05-08T12:54:24.796Z,20.56
2017-05-08T12:56:51.588Z,19.56
2017-05-08T12:59:19.159Z,18.52
2017-05-08T13:01:45.968Z,18.44
2017-05-08T13:04:13.495Z,18.06
2017-05-08T13:06:40.348Z,17.76
2017-05-08T13:09:07.167Z,16.84
2017-05-08T13:11:34.700Z,16.82
2017-05-08T13:14:02.295Z,17.28
2017-05-08T13:16:29.087Z,16.86
2017-05-08T13:18:56.624Z,17.14
2017-05-08T13:21:23.460Z,16.06
2017-05-08T13:23:50.988Z,16.84
2017-05-08T13:26:17.763Z,14.48
2017-05-08T13:28:44.588Z,14.34
2017-05-08T13:31:11.368Z,14.92
2017-05-08T13:33:38.283Z,14.78
2017-05-08T13:36:05.068Z,14.30
2017-05-08T13:38:31.848Z,12.74
2017-05-08T13:40:58.707Z,13.58
2017-05-08T13:43:25.523Z,13.40
2017-05-08T13:45:53.047Z,13.36
2017-05-08T13:48:19.880Z,12.70
2017-05-08T13:50:46.659Z,12.88
2017-05-08T13:53:13.436Z,13.06
2017-05-08T13:55:40.276Z,13.12
2017-05-08T13:58:07.799Z,12.80
2017-05-08T14:00:34.579Z,12.42
2017-05-08T14:03:01.407Z,12.26
2017-05-08T14:05:28.217Z,11.74
2017-05-08T14:07:55.082Z,12.32
2017-05-08T14:10:21.931Z,12.92
2017-05-08T14:12:48.716Z,12.50
2017-05-08T14:15:15.554Z,14.42
2017-05-08T14:17:42.367Z,12.10
2017-05-08T14:20:09.155Z,13.76
2017-05-08T14:22:35.972Z,13.92
2017-05-08T14:25:02.756Z,12.36
2017-05-08T14:27:29.639Z,13.86
2017-05-08T14:29:56.487Z,13.48
2017-05-08T14:32:23.331Z,12.74
2017-05-08T14:34:50.116Z,13.32
2017-05-08T14:37:16.895Z,12.96
2017-05-08T14:39:43.742Z,14.82
2017-05-08T14:42:10.559Z,13.72
2017-05-08T14:44:37.331Z,13.98
2017-05-08T14:47:04.163Z,12.02
2017-05-08T14:49:30.939Z,11.74
2017-05-08T14:51:57.723Z,13.04
2017-05-08T14:54:25.297Z,14.34
2017-05-08T14:56:52.195Z,14.06
2017-05-08T14:59:18.971Z,13.20
2017-05-08T15:01:45.755Z,12.68
2017-05-08T15:04:13.363Z,13.66
2017-05-08T15:06:40.171Z,13.34
2017-05-08T15:09:06.991Z,12.50
2017-05-08T15:11:33.809Z,13.08
2017-05-08T15:14:00.608Z,13.48
2017-05-08T15:16:27.502Z,12.36
2017-05-08T15:18:54.371Z,12.28
2017-05-08T15:21:21.916Z,11.42
2017-05-08T15:23:49.496Z,11.74
2017-05-08T15:26:16.269Z,11.58
2017-05-08T15:28:43.060Z,11.98
2017-05-08T15:31:09.885Z,12.20
2017-05-08T15:33:36.679Z,11.66
2017-05-08T15:36:04.211Z,12.22
2017-05-08T15:38:31.779Z,11.08
2017-05-08T15:40:58.589Z,13.30
2017-05-08T15:43:26.115Z,11.38
2017-05-08T15:45:52.956Z,13.20
2017-05-08T15:48:19.787Z,12.30
2017-05-08T15:50:46.624Z,11.32
2017-05-08T15:53:14.177Z,13.32
2017-05-08T15:55:41.700Z,11.98
2017-05-08T15:58:08.532Z,13.76
2017-05-08T16:00:35.317Z,14.52
2017-05-08T16:03:02.095Z,12.28
2017-05-08T16:05:29.683Z,13.60
2017-05-08T16:07:56.472Z,13.26
2017-05-08T16:10:24.018Z,13.22
2017-05-08T16:12:51.627Z,12.22
2017-05-08T16:15:18.424Z,12.16
2017-05-08T16:17:45.211Z,12.32
2017-05-08T16:20:12.784Z,12.60
2017-05-08T16:22:39.567Z,11.96
2017-05-08T16:25:06.477Z,13.16
2017-05-08T16:27:38.682Z,13.16
2017-05-08T16:30:08.203Z,13.96
2017-05-08T16:32:35.013Z,12.16
2017-05-08T16:35:01.832Z,11.12
2017-05-08T16:37:28.672Z,10.00
2017-05-08T16:39:55.477Z,12.60
2017-05-08T16:42:23.128Z,11.24
2017-05-08T16:44:50.722Z,11.52
2017-05-08T16:47:17.524Z,10.88
2017-05-08T16:49:44.407Z,10.82
2017-05-08T16:52:11.335Z,9.84
2017-05-08T16:54:38.251Z,10.94
2017-05-08T16:57:05.035Z,11.12
2017-05-08T16:59:31.925Z,11.96
2017-05-08T17:01:58.825Z,10.10
2017-05-08T17:04:25.627Z,10.06
2017-05-08T17:06:52.457Z,11.04
2017-05-08T17:09:19.239Z,10.52
2017-05-08T17:11:46.019Z,10.94
2017-05-08T17:14:12.884Z,9.26
2017-05-08T17:16:39.719Z,9.22
2017-05-08T17:19:06.504Z,11.36
2017-05-08T17:21:33.288Z,9.08
2017-05-08T17:24:01.032Z,8.38
2017-05-08T17:26:27.844Z,8.14
2017-05-08T17:28:54.659Z,8.78
2017-05-08T17:31:21.505Z,8.96
2017-05-08T17:33:48.287Z,7.22
2017-05-08T17:36:15.079Z,6.92
2017-05-08T17:38:42.656Z,7.88
2017-05-08T17:41:09.434Z,7.86
2017-05-08T17:43:36.211Z,7.72
2017-05-08T17:46:03.049Z,6.64
2017-05-08T17:48:29.903Z,7.30
2017-05-08T17:50:56.740Z,6.94
2017-05-08T17:53:23.632Z,8.62
2017-05-08T17:55:50.413Z,7.88
2017-05-08T17:58:17.943Z,7.22
2017-05-08T18:00:44.779Z,6.68
2017-05-08T18:03:11.563Z,7.92
2017-05-08T18:05:38.389Z,7.60
2017-05-08T18:08:05.224Z,6.78
2017-05-08T18:10:32.008Z,7.14
2017-05-08T18:12:59.543Z,9.06
2017-05-08T18:15:27.117Z,9.62
2017-05-08T18:17:53.943Z,4.54
2017-05-08T18:20:20.792Z,2.48
2017-05-08T18:22:47.575Z,2.62
2017-05-08T18:25:15.143Z,4.10
2017-05-08T18:27:41.935Z,3.76
2017-05-08T18:30:08.829Z,3.22
2017-05-08T18:32:35.664Z,3.82
2017-05-08T18:35:02.567Z,3.14
2017-05-08T18:37:29.372Z,3.02
2017-05-08T18:39:56.284Z,3.12
2017-05-08T18:42:23.914Z,3.20
2017-05-08T18:44:50.695Z,3.08
2017-05-08T18:47:17.519Z,3.32
2017-05-08T18:49:44.307Z,4.48
2017-05-08T18:52:11.091Z,4.96
2017-05-08T18:54:37.967Z,5.08
2017-05-08T18:57:04.747Z,3.96
2017-05-08T18:59:31.527Z,2.90
2017-05-08T19:01:59.121Z,4.04
2017-05-08T19:04:25.977Z,3.18
2017-05-08T19:06:52.839Z,2.88
2017-05-08T19:09:19.708Z,3.42
2017-05-08T19:11:46.507Z,2.78
2017-05-08T19:14:13.297Z,3.06
2017-05-08T19:16:40.117Z,3.40
2017-05-08T19:19:06.883Z,3.18
2017-05-08T19:21:34.437Z,2.32
2017-05-08T19:24:01.275Z,2.84
2017-05-08T19:26:28.464Z,3.10
2017-05-08T19:28:55.268Z,3.40
2017-05-08T19:31:22.055Z,4.10
2017-05-08T19:33:48.892Z,3.10
2017-05-08T19:36:15.672Z,3.70
2017-05-08T19:38:42.452Z,4.12
2017-05-08T19:41:09.288Z,3.62
2017-05-08T19:43:36.110Z,4.50
2017-05-08T19:46:02.887Z,4.42
2017-05-08T19:48:29.731Z,4.98
2017-05-08T19:50:56.587Z,10.22
2017-05-08T19:53:23.759Z,5.34
2017-05-08T19:55:50.536Z,5.60
2017-05-08T19:58:18.109Z,5.18
2017-05-08T20:00:44.896Z,5.70
2017-05-08T20:03:12.417Z,5.30
2017-05-08T20:05:39.260Z,6.06
2017-05-08T20:08:06.796Z,6.26
2017-05-08T20:10:34.410Z,5.58
2017-05-08T20:13:01.244Z,8.04
2017-05-08T20:15:28.047Z,6.06
2017-05-08T20:17:54.903Z,5.84
2017-05-08T20:20:21.746Z,6.04
2017-05-08T20:22:48.532Z,7.16
2017-05-08T20:25:16.551Z,8.58
2017-05-08T20:27:43.748Z,9.12
2017-05-08T20:30:10.531Z,9.32
2017-05-08T20:32:38.104Z,10.60
2017-05-08T20:35:04.948Z,7.74
2017-05-08T20:37:31.740Z,8.18
2017-05-08T20:39:58.605Z,7.96
2017-05-08T20:42:25.473Z,7.74
2017-05-08T20:44:52.289Z,7.78
2017-05-08T20:47:19.074Z,8.16
2017-05-08T20:49:45.892Z,9.32
2017-05-08T20:52:12.719Z,8.04
2017-05-08T20:54:39.507Z,8.68
2017-05-08T20:57:06.326Z,8.00
2017-05-08T20:59:33.260Z,7.44
2017-05-08T21:02:00.037Z,8.10
2017-05-08T21:04:26.867Z,8.32
2017-05-08T21:06:54.691Z,8.24
2017-05-08T21:09:22.220Z,7.72
2017-05-08T21:11:49.003Z,8.74
2017-05-08T21:14:15.815Z,7.82
2017-05-08T21:16:42.635Z,7.80
2017-05-08T21:19:09.468Z,7.48
2017-05-08T21:21:36.247Z,7.78
2017-05-08T21:24:03.031Z,6.30
2017-05-08T21:26:29.872Z,5.94
2017-05-08T21:28:56.717Z,7.42
2017-05-08T21:31:23.508Z,6.72
2017-05-08T21:33:50.331Z,7.24
2017-05-08T21:36:17.113Z,6.04
2017-05-08T21:38:43.892Z,5.90
2017-05-08T21:41:10.720Z,5.42
2017-05-08T21:43:37.508Z,5.68
2017-05-08T21:46:05.023Z,4.50
2017-05-08T21:48:31.847Z,4.32
2017-05-08T21:50:58.624Z,4.26
2017-05-08T21:53:26.211Z,5.34
2017-05-08T21:55:53.056Z,5.40
2017-05-08T21:58:19.851Z,5.20
2017-05-08T22:00:46.639Z,4.60
2017-05-08T22:03:14.251Z,4.82
2017-05-08T22:05:41.060Z,4.78
2017-05-08T22:08:07.836Z,5.34
2017-05-08T22:10:34.719Z,4.94
2017-05-08T22:13:01.516Z,4.54
2017-05-08T22:15:28.291Z,4.30
2017-05-08T22:17:55.123Z,5.86
2017-05-08T22:20:21.929Z,5.32
2017-05-08T22:22:48.786Z,4.70
2017-05-08T22:25:15.664Z,6.00
2017-05-08T22:27:42.499Z,4.08
2017-05-08T22:30:09.292Z,5.42
2017-05-08T22:32:36.124Z,5.14
2017-05-08T22:35:02.959Z,5.54
2017-05-08T22:37:29.827Z,5.70
2017-05-08T22:39:56.616Z,6.06
2017-05-08T22:42:23.464Z,5.70
2017-05-08T22:44:50.991Z,5.64
2017-05-08T22:47:17.779Z,4.96
2017-05-08T22:49:44.612Z,5.12
2017-05-08T22:52:11.399Z,5.20
2017-05-08T22:54:38.198Z,5.30
2017-05-08T22:57:05.024Z,5.48
2017-05-08T22:59:31.885Z,6.00
2017-05-08T23:01:58.664Z,5.48
2017-05-08T23:04:25.465Z,5.58
2017-05-08T23:06:52.291Z,5.88
2017-05-08T23:09:19.132Z,5.18
2017-05-08T23:11:45.945Z,5.14
2017-05-08T23:14:12.780Z,5.08
2017-05-08T23:16:40.315Z,5.10
2017-05-08T23:19:07.839Z,5.32
2017-05-08T23:21:34.667Z,5.28
2017-05-08T23:24:01.452Z,6.02
2017-05-08T23:26:28.239Z,6.00
2017-05-08T23:28:55.058Z,5.56
2017-05-08T23:31:21.871Z,4.98
2017-05-08T23:33:49.517Z,4.70
2017-05-08T23:36:16.300Z,5.28
2017-05-08T23:38:43.090Z,5.68
2017-05-08T23:41:09.905Z,5.82
2017-05-08T23:43:36.755Z,5.02
2017-05-08T23:46:03.538Z,5.98
2017-05-08T23:48:30.311Z,5.74
2017-05-08T23:50:57.136Z,4.84
2017-05-08T23:53:23.973Z,4.62
2017-05-08T23:55:51.528Z,4.20
2017-05-08T23:58:18.325Z,4.30
